<?xml version="1.0" encoding="utf-8"?>
<gpx xmlns:xsi="http://www.w3.org/2001/XMLSchema-instance" xmlns:xsd="http://www.w3.org/2001/XMLSchema" version="1.1" creator="Shapelink.com" xmlns="http://www.topografix.com/GPX/1/1" xmlns:gpxtpx="http://www.garmin.com/xmlschemas/TrackPointExtension/v1">
  <metadata>
    <name>Gåing 0.23 km, 2013-05-15</name>
    <desc></desc>
    <author><name>Mikael Blom</name></author> 
    <time>2013-05-15T20:58:36Z</time>
  </metadata>
  <trk>
    <name>Gåing 0.23 km, 2013-05-15</name>
    <trkseg>
      <trkpt lat="59.9539302" lon="17.7149121">
        <ele>38.5901</ele>
        <time>2013-05-15T20:58:36Z</time>
      </trkpt>
      <trkpt lat="59.9539393" lon="17.7149077">
        <ele>38.1094</ele>
        <time>2013-05-15T20:58:37Z</time>
      </trkpt>
      <trkpt lat="59.9539524" lon="17.7148985">
        <ele>39.0707</ele>
        <time>2013-05-15T20:58:38Z</time>
      </trkpt>
      <trkpt lat="59.9539671" lon="17.7148926">
        <ele>39.5513</ele>
        <time>2013-05-15T20:58:39Z</time>
      </trkpt>
      <trkpt lat="59.953983" lon="17.714886">
        <ele>40.0321</ele>
        <time>2013-05-15T20:58:40Z</time>
      </trkpt>
      <trkpt lat="59.9539947" lon="17.7148846">
        <ele>40.0321</ele>
        <time>2013-05-15T20:58:41Z</time>
      </trkpt>
      <trkpt lat="59.9540053" lon="17.7148845">
        <ele>40.0321</ele>
        <time>2013-05-15T20:58:42Z</time>
      </trkpt>
      <trkpt lat="59.9540168" lon="17.7148825">
        <ele>40.0321</ele>
        <time>2013-05-15T20:58:43Z</time>
      </trkpt>
      <trkpt lat="59.9540295" lon="17.7148828">
        <ele>40.5128</ele>
        <time>2013-05-15T20:58:44Z</time>
      </trkpt>
      <trkpt lat="59.954042" lon="17.7148838">
        <ele>40.5128</ele>
        <time>2013-05-15T20:58:45Z</time>
      </trkpt>
      <trkpt lat="59.9540525" lon="17.7148846">
        <ele>40.5128</ele>
        <time>2013-05-15T20:58:46Z</time>
      </trkpt>
      <trkpt lat="59.9540649" lon="17.7148857">
        <ele>40.5128</ele>
        <time>2013-05-15T20:58:47Z</time>
      </trkpt>
      <trkpt lat="59.9540763" lon="17.7148859">
        <ele>40.5128</ele>
        <time>2013-05-15T20:58:48Z</time>
      </trkpt>
      <trkpt lat="59.9540927" lon="17.7148873">
        <ele>40.9934</ele>
        <time>2013-05-15T20:58:49Z</time>
      </trkpt>
      <trkpt lat="59.9541139" lon="17.7148888">
        <ele>41.9547</ele>
        <time>2013-05-15T20:58:50Z</time>
      </trkpt>
      <trkpt lat="59.9541325" lon="17.7148829">
        <ele>43.3966</ele>
        <time>2013-05-15T20:58:51Z</time>
      </trkpt>
      <trkpt lat="59.9541463" lon="17.7148794">
        <ele>43.8773</ele>
        <time>2013-05-15T20:58:52Z</time>
      </trkpt>
      <trkpt lat="59.9541612" lon="17.7148725">
        <ele>44.358</ele>
        <time>2013-05-15T20:58:53Z</time>
      </trkpt>
      <trkpt lat="59.9541732" lon="17.7148644">
        <ele>44.358</ele>
        <time>2013-05-15T20:58:54Z</time>
      </trkpt>
      <trkpt lat="59.9541838" lon="17.7148554">
        <ele>44.358</ele>
        <time>2013-05-15T20:58:55Z</time>
      </trkpt>
      <trkpt lat="59.9541939" lon="17.7148487">
        <ele>43.8773</ele>
        <time>2013-05-15T20:58:56Z</time>
      </trkpt>
      <trkpt lat="59.9542071" lon="17.7148469">
        <ele>43.8773</ele>
        <time>2013-05-15T20:58:57Z</time>
      </trkpt>
      <trkpt lat="59.9542208" lon="17.7148364">
        <ele>43.8773</ele>
        <time>2013-05-15T20:58:58Z</time>
      </trkpt>
      <trkpt lat="59.9542332" lon="17.7148225">
        <ele>44.358</ele>
        <time>2013-05-15T20:58:59Z</time>
      </trkpt>
      <trkpt lat="59.9542466" lon="17.7148134">
        <ele>44.358</ele>
        <time>2013-05-15T20:59:00Z</time>
      </trkpt>
      <trkpt lat="59.9542596" lon="17.714803">
        <ele>43.3966</ele>
        <time>2013-05-15T20:59:01Z</time>
      </trkpt>
      <trkpt lat="59.9542787" lon="17.7147918">
        <ele>43.8773</ele>
        <time>2013-05-15T20:59:02Z</time>
      </trkpt>
      <trkpt lat="59.9542928" lon="17.7147846">
        <ele>43.8773</ele>
        <time>2013-05-15T20:59:03Z</time>
      </trkpt>
      <trkpt lat="59.9543109" lon="17.7147706">
        <ele>44.8386</ele>
        <time>2013-05-15T20:59:04Z</time>
      </trkpt>
      <trkpt lat="59.9543291" lon="17.7147618">
        <ele>45.3192</ele>
        <time>2013-05-15T20:59:05Z</time>
      </trkpt>
      <trkpt lat="59.9543435" lon="17.7147437">
        <ele>45.3192</ele>
        <time>2013-05-15T20:59:06Z</time>
      </trkpt>
      <trkpt lat="59.9543573" lon="17.7147317">
        <ele>45.7999</ele>
        <time>2013-05-15T20:59:07Z</time>
      </trkpt>
      <trkpt lat="59.954369" lon="17.7147176">
        <ele>45.7999</ele>
        <time>2013-05-15T20:59:08Z</time>
      </trkpt>
      <trkpt lat="59.9543838" lon="17.7146979">
        <ele>46.2806</ele>
        <time>2013-05-15T20:59:09Z</time>
      </trkpt>
      <trkpt lat="59.9544" lon="17.714679">
        <ele>46.7612</ele>
        <time>2013-05-15T20:59:10Z</time>
      </trkpt>
      <trkpt lat="59.9544171" lon="17.7146666">
        <ele>47.2418</ele>
        <time>2013-05-15T20:59:11Z</time>
      </trkpt>
      <trkpt lat="59.9544343" lon="17.7146582">
        <ele>47.2418</ele>
        <time>2013-05-15T20:59:12Z</time>
      </trkpt>
      <trkpt lat="59.9544544" lon="17.7146555">
        <ele>48.2034</ele>
        <time>2013-05-15T20:59:13Z</time>
      </trkpt>
      <trkpt lat="59.9544729" lon="17.7146573">
        <ele>48.684</ele>
        <time>2013-05-15T20:59:14Z</time>
      </trkpt>
      <trkpt lat="59.9544864" lon="17.7146648">
        <ele>48.684</ele>
        <time>2013-05-15T20:59:15Z</time>
      </trkpt>
      <trkpt lat="59.9545005" lon="17.7146658">
        <ele>48.684</ele>
        <time>2013-05-15T20:59:16Z</time>
      </trkpt>
      <trkpt lat="59.9545138" lon="17.7146772">
        <ele>48.2034</ele>
        <time>2013-05-15T20:59:17Z</time>
      </trkpt>
      <trkpt lat="59.95453" lon="17.7146854">
        <ele>48.2034</ele>
        <time>2013-05-15T20:59:18Z</time>
      </trkpt>
      <trkpt lat="59.9545477" lon="17.7147048">
        <ele>47.7225</ele>
        <time>2013-05-15T20:59:19Z</time>
      </trkpt>
      <trkpt lat="59.9545653" lon="17.7147163">
        <ele>47.7225</ele>
        <time>2013-05-15T20:59:20Z</time>
      </trkpt>
      <trkpt lat="59.9545808" lon="17.7147116">
        <ele>48.2034</ele>
        <time>2013-05-15T20:59:21Z</time>
      </trkpt>
      <trkpt lat="59.9545936" lon="17.7147048">
        <ele>48.684</ele>
        <time>2013-05-15T20:59:22Z</time>
      </trkpt>
      <trkpt lat="59.9546058" lon="17.7146963">
        <ele>49.1646</ele>
        <time>2013-05-15T20:59:23Z</time>
      </trkpt>
      <trkpt lat="59.9546139" lon="17.7146908">
        <ele>48.684</ele>
        <time>2013-05-15T20:59:24Z</time>
      </trkpt>
      <trkpt lat="59.9546293" lon="17.714682">
        <ele>49.6453</ele>
        <time>2013-05-15T20:59:25Z</time>
      </trkpt>
      <trkpt lat="59.9546419" lon="17.7146767">
        <ele>49.6453</ele>
        <time>2013-05-15T20:59:26Z</time>
      </trkpt>
      <trkpt lat="59.9546544" lon="17.7146737">
        <ele>49.6453</ele>
        <time>2013-05-15T20:59:27Z</time>
      </trkpt>
      <trkpt lat="59.9546652" lon="17.7146784">
        <ele>49.1646</ele>
        <time>2013-05-15T20:59:28Z</time>
      </trkpt>
      <trkpt lat="59.9546781" lon="17.714684">
        <ele>49.1646</ele>
        <time>2013-05-15T20:59:29Z</time>
      </trkpt>
      <trkpt lat="59.9546887" lon="17.7146882">
        <ele>48.684</ele>
        <time>2013-05-15T20:59:30Z</time>
      </trkpt>
      <trkpt lat="59.9547014" lon="17.7146872">
        <ele>48.2034</ele>
        <time>2013-05-15T20:59:31Z</time>
      </trkpt>
      <trkpt lat="59.9547125" lon="17.7146809">
        <ele>47.7225</ele>
        <time>2013-05-15T20:59:32Z</time>
      </trkpt>
      <trkpt lat="59.9547264" lon="17.7146758">
        <ele>47.2418</ele>
        <time>2013-05-15T20:59:33Z</time>
      </trkpt>
      <trkpt lat="59.9547412" lon="17.7146746">
        <ele>47.2418</ele>
        <time>2013-05-15T20:59:34Z</time>
      </trkpt>
      <trkpt lat="59.9547577" lon="17.7146711">
        <ele>47.2418</ele>
        <time>2013-05-15T20:59:35Z</time>
      </trkpt>
      <trkpt lat="59.9547719" lon="17.7146681">
        <ele>46.7612</ele>
        <time>2013-05-15T20:59:36Z</time>
      </trkpt>
      <trkpt lat="59.9547868" lon="17.7146637">
        <ele>46.2806</ele>
        <time>2013-05-15T20:59:37Z</time>
      </trkpt>
      <trkpt lat="59.9548044" lon="17.7146578">
        <ele>45.7999</ele>
        <time>2013-05-15T20:59:38Z</time>
      </trkpt>
      <trkpt lat="59.954818" lon="17.7146538">
        <ele>45.7999</ele>
        <time>2013-05-15T20:59:39Z</time>
      </trkpt>
      <trkpt lat="59.95483" lon="17.7146569">
        <ele>44.8386</ele>
        <time>2013-05-15T20:59:40Z</time>
      </trkpt>
      <trkpt lat="59.9548425" lon="17.7146545">
        <ele>44.358</ele>
        <time>2013-05-15T20:59:41Z</time>
      </trkpt>
      <trkpt lat="59.9548539" lon="17.714644">
        <ele>43.8773</ele>
        <time>2013-05-15T20:59:42Z</time>
      </trkpt>
      <trkpt lat="59.9548634" lon="17.7146318">
        <ele>42.916</ele>
        <time>2013-05-15T20:59:43Z</time>
      </trkpt>
      <trkpt lat="59.9548741" lon="17.7146193">
        <ele>42.916</ele>
        <time>2013-05-15T20:59:44Z</time>
      </trkpt>
      <trkpt lat="59.9548823" lon="17.7146115">
        <ele>42.4354</ele>
        <time>2013-05-15T20:59:45Z</time>
      </trkpt>
      <trkpt lat="59.9548916" lon="17.7145991">
        <ele>41.9547</ele>
        <time>2013-05-15T20:59:46Z</time>
      </trkpt>
      <trkpt lat="59.9549015" lon="17.7145798">
        <ele>41.474</ele>
        <time>2013-05-15T20:59:47Z</time>
      </trkpt>
      <trkpt lat="59.9549107" lon="17.7145518">
        <ele>41.474</ele>
        <time>2013-05-15T20:59:48Z</time>
      </trkpt>
      <trkpt lat="59.9549205" lon="17.714524">
        <ele>41.474</ele>
        <time>2013-05-15T20:59:49Z</time>
      </trkpt>
      <trkpt lat="59.9549316" lon="17.7145044">
        <ele>41.474</ele>
        <time>2013-05-15T20:59:50Z</time>
      </trkpt>
      <trkpt lat="59.9549402" lon="17.7144896">
        <ele>41.474</ele>
        <time>2013-05-15T20:59:51Z</time>
      </trkpt>
      <trkpt lat="59.9549491" lon="17.7144733">
        <ele>41.474</ele>
        <time>2013-05-15T20:59:52Z</time>
      </trkpt>
      <trkpt lat="59.9549583" lon="17.7144547">
        <ele>41.474</ele>
        <time>2013-05-15T20:59:53Z</time>
      </trkpt>
      <trkpt lat="59.9549694" lon="17.714435">
        <ele>41.474</ele>
        <time>2013-05-15T20:59:54Z</time>
      </trkpt>
      <trkpt lat="59.9549811" lon="17.7144172">
        <ele>40.9934</ele>
        <time>2013-05-15T20:59:55Z</time>
      </trkpt>
      <trkpt lat="59.9549914" lon="17.7144011">
        <ele>40.9934</ele>
        <time>2013-05-15T20:59:56Z</time>
      </trkpt>
      <trkpt lat="59.9550013" lon="17.7143852">
        <ele>40.9934</ele>
        <time>2013-05-15T20:59:57Z</time>
      </trkpt>
      <trkpt lat="59.9550123" lon="17.7143696">
        <ele>40.9934</ele>
        <time>2013-05-15T20:59:58Z</time>
      </trkpt>
      <trkpt lat="59.9550221" lon="17.7143539">
        <ele>40.5128</ele>
        <time>2013-05-15T20:59:59Z</time>
      </trkpt>
      <trkpt lat="59.9550356" lon="17.7143391">
        <ele>40.0321</ele>
        <time>2013-05-15T21:00:00Z</time>
      </trkpt>
      <trkpt lat="59.955049" lon="17.714336">
        <ele>39.5513</ele>
        <time>2013-05-15T21:00:01Z</time>
      </trkpt>
      <trkpt lat="59.9550605" lon="17.7143338">
        <ele>39.5513</ele>
        <time>2013-05-15T21:00:02Z</time>
      </trkpt>
      <trkpt lat="59.9550719" lon="17.7143263">
        <ele>39.5513</ele>
        <time>2013-05-15T21:00:03Z</time>
      </trkpt>
      <trkpt lat="59.9550811" lon="17.714318">
        <ele>39.0707</ele>
        <time>2013-05-15T21:00:04Z</time>
      </trkpt>
      <trkpt lat="59.9550882" lon="17.7143021">
        <ele>39.0707</ele>
        <time>2013-05-15T21:00:05Z</time>
      </trkpt>
      <trkpt lat="59.9550919" lon="17.7142817">
        <ele>39.0707</ele>
        <time>2013-05-15T21:00:06Z</time>
      </trkpt>
      <trkpt lat="59.9550947" lon="17.7142601">
        <ele>39.0707</ele>
        <time>2013-05-15T21:00:07Z</time>
      </trkpt>
      <trkpt lat="59.9550981" lon="17.7142363">
        <ele>39.0707</ele>
        <time>2013-05-15T21:00:08Z</time>
      </trkpt>
      <trkpt lat="59.955106" lon="17.7142113">
        <ele>39.0707</ele>
        <time>2013-05-15T21:00:09Z</time>
      </trkpt>
      <trkpt lat="59.9551169" lon="17.7141915">
        <ele>39.5513</ele>
        <time>2013-05-15T21:00:10Z</time>
      </trkpt>
      <trkpt lat="59.955129" lon="17.714178">
        <ele>40.0321</ele>
        <time>2013-05-15T21:00:11Z</time>
      </trkpt>
      <trkpt lat="59.9551419" lon="17.7141604">
        <ele>40.5128</ele>
        <time>2013-05-15T21:00:12Z</time>
      </trkpt>
      <trkpt lat="59.9551549" lon="17.7141429">
        <ele>40.9934</ele>
        <time>2013-05-15T21:00:13Z</time>
      </trkpt>
      <trkpt lat="59.9551696" lon="17.7141384">
        <ele>40.9934</ele>
        <time>2013-05-15T21:00:14Z</time>
      </trkpt>
      <trkpt lat="59.9551832" lon="17.7141464">
        <ele>41.474</ele>
        <time>2013-05-15T21:00:15Z</time>
      </trkpt>
      <trkpt lat="59.9551966" lon="17.7141586">
        <ele>41.474</ele>
        <time>2013-05-15T21:00:16Z</time>
      </trkpt>
      <trkpt lat="59.9552077" lon="17.71418">
        <ele>41.474</ele>
        <time>2013-05-15T21:00:17Z</time>
      </trkpt>
      <trkpt lat="59.9552177" lon="17.7142096">
        <ele>41.474</ele>
        <time>2013-05-15T21:00:18Z</time>
      </trkpt>
      <trkpt lat="59.955225" lon="17.7142384">
        <ele>41.474</ele>
        <time>2013-05-15T21:00:19Z</time>
      </trkpt>
      <trkpt lat="59.9552309" lon="17.7142624">
        <ele>41.474</ele>
        <time>2013-05-15T21:00:20Z</time>
      </trkpt>
      <trkpt lat="59.9552365" lon="17.7142874">
        <ele>41.9547</ele>
        <time>2013-05-15T21:00:21Z</time>
      </trkpt>
      <trkpt lat="59.9552485" lon="17.7143013">
        <ele>42.916</ele>
        <time>2013-05-15T21:00:22Z</time>
      </trkpt>
      <trkpt lat="59.9552542" lon="17.7143211">
        <ele>42.916</ele>
        <time>2013-05-15T21:00:23Z</time>
      </trkpt>
      <trkpt lat="59.9552589" lon="17.7143437">
        <ele>43.3966</ele>
        <time>2013-05-15T21:00:24Z</time>
      </trkpt>
      <trkpt lat="59.9552634" lon="17.7143658">
        <ele>42.916</ele>
        <time>2013-05-15T21:00:25Z</time>
      </trkpt>
      <trkpt lat="59.9552671" lon="17.7143944">
        <ele>43.3966</ele>
        <time>2013-05-15T21:00:26Z</time>
      </trkpt>
      <trkpt lat="59.9552697" lon="17.7144184">
        <ele>43.3966</ele>
        <time>2013-05-15T21:00:27Z</time>
      </trkpt>
      <trkpt lat="59.9552739" lon="17.7144405">
        <ele>43.3966</ele>
        <time>2013-05-15T21:00:28Z</time>
      </trkpt>
      <trkpt lat="59.9552797" lon="17.7144619">
        <ele>43.3966</ele>
        <time>2013-05-15T21:00:29Z</time>
      </trkpt>
      <trkpt lat="59.9552833" lon="17.7144831">
        <ele>42.916</ele>
        <time>2013-05-15T21:00:30Z</time>
      </trkpt>
      <trkpt lat="59.9552872" lon="17.7145053">
        <ele>42.916</ele>
        <time>2013-05-15T21:00:31Z</time>
      </trkpt>
      <trkpt lat="59.9552926" lon="17.7145339">
        <ele>42.916</ele>
        <time>2013-05-15T21:00:32Z</time>
      </trkpt>
      <trkpt lat="59.9552982" lon="17.7145639">
        <ele>42.916</ele>
        <time>2013-05-15T21:00:33Z</time>
      </trkpt>
      <trkpt lat="59.9553051" lon="17.7145938">
        <ele>42.4354</ele>
        <time>2013-05-15T21:00:34Z</time>
      </trkpt>
      <trkpt lat="59.9553117" lon="17.7146243">
        <ele>42.4354</ele>
        <time>2013-05-15T21:00:35Z</time>
      </trkpt>
      <trkpt lat="59.9553184" lon="17.7146481">
        <ele>42.916</ele>
        <time>2013-05-15T21:00:36Z</time>
      </trkpt>
      <trkpt lat="59.955323" lon="17.7146691">
        <ele>42.916</ele>
        <time>2013-05-15T21:00:37Z</time>
      </trkpt>
      <trkpt lat="59.9553262" lon="17.7146916">
        <ele>43.3966</ele>
        <time>2013-05-15T21:00:38Z</time>
      </trkpt>
      <trkpt lat="59.9553322" lon="17.7147099">
        <ele>43.3966</ele>
        <time>2013-05-15T21:00:39Z</time>
      </trkpt>
      <trkpt lat="59.955335" lon="17.7147332">
        <ele>43.3966</ele>
        <time>2013-05-15T21:00:40Z</time>
      </trkpt>
      <trkpt lat="59.955339" lon="17.714754">
        <ele>43.3966</ele>
        <time>2013-05-15T21:00:41Z</time>
      </trkpt>
      <trkpt lat="59.9553433" lon="17.7147695">
        <ele>43.3966</ele>
        <time>2013-05-15T21:00:42Z</time>
      </trkpt>
      <trkpt lat="59.9553443" lon="17.7147945">
        <ele>43.3966</ele>
        <time>2013-05-15T21:00:43Z</time>
      </trkpt>
      <trkpt lat="59.9553457" lon="17.7148167">
        <ele>42.916</ele>
        <time>2013-05-15T21:00:44Z</time>
      </trkpt>
      <trkpt lat="59.955349" lon="17.7148417">
        <ele>42.4354</ele>
        <time>2013-05-15T21:00:45Z</time>
      </trkpt>
      <trkpt lat="59.9553557" lon="17.7148724">
        <ele>42.916</ele>
        <time>2013-05-15T21:00:46Z</time>
      </trkpt>
      <trkpt lat="59.9553625" lon="17.7148983">
        <ele>42.916</ele>
        <time>2013-05-15T21:00:47Z</time>
      </trkpt>
      <trkpt lat="59.9553702" lon="17.714924">
        <ele>42.916</ele>
        <time>2013-05-15T21:00:48Z</time>
      </trkpt>
      <trkpt lat="59.955374" lon="17.7149479">
        <ele>42.4354</ele>
        <time>2013-05-15T21:00:49Z</time>
      </trkpt>
      <trkpt lat="59.9553801" lon="17.7149715">
        <ele>42.4354</ele>
        <time>2013-05-15T21:00:50Z</time>
      </trkpt>
      <trkpt lat="59.9553873" lon="17.7149934">
        <ele>42.4354</ele>
        <time>2013-05-15T21:00:51Z</time>
      </trkpt>
      <trkpt lat="59.9553971" lon="17.7150157">
        <ele>42.916</ele>
        <time>2013-05-15T21:00:52Z</time>
      </trkpt>
      <trkpt lat="59.9554019" lon="17.715041">
        <ele>42.916</ele>
        <time>2013-05-15T21:00:53Z</time>
      </trkpt>
      <trkpt lat="59.9554033" lon="17.7150621">
        <ele>42.4354</ele>
        <time>2013-05-15T21:00:54Z</time>
      </trkpt>
      <trkpt lat="59.95541" lon="17.7150824">
        <ele>42.4354</ele>
        <time>2013-05-15T21:00:55Z</time>
      </trkpt>
      <trkpt lat="59.95542" lon="17.7151">
        <ele>42.916</ele>
        <time>2013-05-15T21:00:56Z</time>
      </trkpt>
      <trkpt lat="59.9554262" lon="17.7151192">
        <ele>42.916</ele>
        <time>2013-05-15T21:00:57Z</time>
      </trkpt>
      <trkpt lat="59.9554314" lon="17.715139">
        <ele>42.4354</ele>
        <time>2013-05-15T21:00:58Z</time>
      </trkpt>
      <trkpt lat="59.9554361" lon="17.7151553">
        <ele>42.4354</ele>
        <time>2013-05-15T21:00:59Z</time>
      </trkpt>
      <trkpt lat="59.9554426" lon="17.7151693">
        <ele>41.9547</ele>
        <time>2013-05-15T21:01:00Z</time>
      </trkpt>
      <trkpt lat="59.9554475" lon="17.7151891">
        <ele>41.9547</ele>
        <time>2013-05-15T21:01:01Z</time>
      </trkpt>
      <trkpt lat="59.9554506" lon="17.7152052">
        <ele>41.474</ele>
        <time>2013-05-15T21:01:02Z</time>
      </trkpt>
      <trkpt lat="59.9554557" lon="17.7152138">
        <ele>41.474</ele>
        <time>2013-05-15T21:01:03Z</time>
      </trkpt>
      <trkpt lat="59.9554603" lon="17.7152161">
        <ele>41.9547</ele>
        <time>2013-05-15T21:01:04Z</time>
      </trkpt>
      <trkpt lat="59.9554603" lon="17.7152223">
        <ele>41.9547</ele>
        <time>2013-05-15T21:01:05Z</time>
      </trkpt>
      <trkpt lat="59.9554635" lon="17.7152347">
        <ele>42.4354</ele>
        <time>2013-05-15T21:01:06Z</time>
      </trkpt>
      <trkpt lat="59.9554681" lon="17.7152363">
        <ele>43.3966</ele>
        <time>2013-05-15T21:01:07Z</time>
      </trkpt>
      <trkpt lat="59.9554724" lon="17.7152387">
        <ele>43.8773</ele>
        <time>2013-05-15T21:01:08Z</time>
      </trkpt>
      <trkpt lat="59.9554791" lon="17.7152495">
        <ele>44.8386</ele>
        <time>2013-05-15T21:01:09Z</time>
      </trkpt>
      <trkpt lat="59.9554824" lon="17.7152617">
        <ele>45.3192</ele>
        <time>2013-05-15T21:01:10Z</time>
      </trkpt>
      <trkpt lat="59.9554863" lon="17.7152718">
        <ele>45.3192</ele>
        <time>2013-05-15T21:01:11Z</time>
      </trkpt>
      <trkpt lat="59.95549" lon="17.7152791">
        <ele>45.3192</ele>
        <time>2013-05-15T21:01:12Z</time>
      </trkpt>
      <trkpt lat="59.9554914" lon="17.7152829">
        <ele>46.2806</ele>
        <time>2013-05-15T21:01:13Z</time>
      </trkpt>
      <trkpt lat="59.9554889" lon="17.7152866">
        <ele>46.2806</ele>
        <time>2013-05-15T21:01:14Z</time>
      </trkpt>
    </trkseg>
  </trk>
</gpx>